sensor_id;sensor_type;location;lat;lon;timestamp;temperature;humidity
8248;DHT22;4164;49.844;8.830;2023-06-22T00:01:05;21.50;1.00
8248;DHT22;4164;49.844;8.830;2023-06-22T00:03:31;21.60;1.00
8248;DHT22;4164;49.844;8.830;2023-06-22T00:05:57;21.70;99.90
8248;DHT22;4164;49.844;8.830;2023-06-22T00:08:22;21.70;99.90
8248;DHT22;4164;49.844;8.830;2023-06-22T00:10:48;21.70;99.90
8248;DHT22;4164;49.844;8.830;2023-06-22T00:13:14;21.80;99.90
8248;DHT22;4164;49.844;8.830;2023-06-22T00:15:41;22.00;99.90
8248;DHT22;4164;49.844;8.830;2023-06-22T00:18:08;22.00;99.90
8248;DHT22;4164;49.844;8.830;2023-06-22T00:20:33;22.00;99.90
8248;DHT22;4164;49.844;8.830;2023-06-22T00:23:03;21.90;99.90
8248;DHT22;4164;49.844;8.830;2023-06-22T00:25:36;22.00;99.90
8248;DHT22;4164;49.844;8.830;2023-06-22T00:28:03;21.90;99.90
8248;DHT22;4164;49.844;8.830;2023-06-22T00:30:30;22.10;99.90
8248;DHT22;4164;49.844;8.830;2023-06-22T00:32:56;22.00;99.90
8248;DHT22;4164;49.844;8.830;2023-06-22T00:35:22;22.00;99.90
8248;DHT22;4164;49.844;8.830;2023-06-22T00:37:48;22.00;99.90
8248;DHT22;4164;49.844;8.830;2023-06-22T00:40:13;22.00;99.90
8248;DHT22;4164;49.844;8.830;2023-06-22T00:42:40;21.80;99.90
8248;DHT22;4164;49.844;8.830;2023-06-22T00:45:06;21.50;99.90
8248;DHT22;4164;49.844;8.830;2023-06-22T00:47:34;21.50;1.00
8248;DHT22;4164;49.844;8.830;2023-06-22T00:50:00;21.50;1.00
8248;DHT22;4164;49.844;8.830;2023-06-22T00:52:26;21.70;99.90
8248;DHT22;4164;49.844;8.830;2023-06-22T00:54:55;21.70;99.90
8248;DHT22;4164;49.844;8.830;2023-06-22T00:57:22;21.70;99.90
8248;DHT22;4164;49.844;8.830;2023-06-22T00:59:53;21.70;99.90
8248;DHT22;4164;49.844;8.830;2023-06-22T01:02:19;21.70;99.90
8248;DHT22;4164;49.844;8.830;2023-06-22T01:04:44;21.80;99.90
8248;DHT22;4164;49.844;8.830;2023-06-22T01:07:18;21.80;99.90
8248;DHT22;4164;49.844;8.830;2023-06-22T01:10:02;21.90;99.90
8248;DHT22;4164;49.844;8.830;2023-06-22T01:12:36;21.90;99.90
8248;DHT22;4164;49.844;8.830;2023-06-22T01:15:44;21.80;99.90
8248;DHT22;4164;49.844;8.830;2023-06-22T01:18:08;21.70;99.90
8248;DHT22;4164;49.844;8.830;2023-06-22T01:20:36;21.70;99.90
8248;DHT22;4164;49.844;8.830;2023-06-22T01:26:05;21.90;99.90
8248;DHT22;4164;49.844;8.830;2023-06-22T01:31:01;21.80;1.00
8248;DHT22;4164;49.844;8.830;2023-06-22T01:33:33;21.70;1.00
8248;DHT22;4164;49.844;8.830;2023-06-22T01:36:01;21.50;1.00
8248;DHT22;4164;49.844;8.830;2023-06-22T01:38:29;21.30;1.00
8248;DHT22;4164;49.844;8.830;2023-06-22T01:40:56;21.20;1.00
8248;DHT22;4164;49.844;8.830;2023-06-22T01:43:22;21.10;1.00
8248;DHT22;4164;49.844;8.830;2023-06-22T01:45:50;21.00;1.00
8248;DHT22;4164;49.844;8.830;2023-06-22T01:48:16;20.90;1.00
8248;DHT22;4164;49.844;8.830;2023-06-22T01:50:43;20.80;1.00
8248;DHT22;4164;49.844;8.830;2023-06-22T01:53:11;20.80;1.00
8248;DHT22;4164;49.844;8.830;2023-06-22T01:55:37;20.70;1.00
8248;DHT22;4164;49.844;8.830;2023-06-22T01:58:02;20.70;1.00
8248;DHT22;4164;49.844;8.830;2023-06-22T02:00:31;20.70;1.00
8248;DHT22;4164;49.844;8.830;2023-06-22T02:03:08;20.70;1.00
8248;DHT22;4164;49.844;8.830;2023-06-22T02:05:38;20.70;1.00
8248;DHT22;4164;49.844;8.830;2023-06-22T02:08:09;20.80;1.00
8248;DHT22;4164;49.844;8.830;2023-06-22T02:10:37;20.90;1.00
8248;DHT22;4164;49.844;8.830;2023-06-22T02:13:06;21.00;1.00
8248;DHT22;4164;49.844;8.830;2023-06-22T02:15:33;21.00;1.00
8248;DHT22;4164;49.844;8.830;2023-06-22T02:17:59;20.80;1.00
8248;DHT22;4164;49.844;8.830;2023-06-22T02:20:25;20.80;1.00
8248;DHT22;4164;49.844;8.830;2023-06-22T02:22:51;20.80;1.00
8248;DHT22;4164;49.844;8.830;2023-06-22T02:25:16;20.90;1.00
8248;DHT22;4164;49.844;8.830;2023-06-22T02:27:42;20.90;1.00
8248;DHT22;4164;49.844;8.830;2023-06-22T02:30:08;20.90;1.00
8248;DHT22;4164;49.844;8.830;2023-06-22T02:32:36;20.90;1.00
8248;DHT22;4164;49.844;8.830;2023-06-22T02:35:02;20.80;1.00
8248;DHT22;4164;49.844;8.830;2023-06-22T02:37:32;20.70;1.00
8248;DHT22;4164;49.844;8.830;2023-06-22T02:39:57;20.70;1.00
8248;DHT22;4164;49.844;8.830;2023-06-22T02:42:26;20.70;1.00
8248;DHT22;4164;49.844;8.830;2023-06-22T02:44:51;20.70;1.00
8248;DHT22;4164;49.844;8.830;2023-06-22T02:47:18;20.90;1.00
8248;DHT22;4164;49.844;8.830;2023-06-22T02:49:43;20.90;1.00
8248;DHT22;4164;49.844;8.830;2023-06-22T02:52:11;20.90;1.00
8248;DHT22;4164;49.844;8.830;2023-06-22T02:54:36;20.80;1.00
8248;DHT22;4164;49.844;8.830;2023-06-22T02:57:02;20.90;1.00
8248;DHT22;4164;49.844;8.830;2023-06-22T02:59:28;20.70;1.00
8248;DHT22;4164;49.844;8.830;2023-06-22T03:01:53;20.70;1.00
8248;DHT22;4164;49.844;8.830;2023-06-22T03:04:19;20.70;1.00
8248;DHT22;4164;49.844;8.830;2023-06-22T03:06:45;20.60;1.00
8248;DHT22;4164;49.844;8.830;2023-06-22T03:09:16;20.60;1.00
8248;DHT22;4164;49.844;8.830;2023-06-22T03:11:42;20.80;1.00
8248;DHT22;4164;49.844;8.830;2023-06-22T03:14:07;20.80;1.00
8248;DHT22;4164;49.844;8.830;2023-06-22T03:16:33;20.70;1.00
8248;DHT22;4164;49.844;8.830;2023-06-22T03:18:59;20.70;1.00
8248;DHT22;4164;49.844;8.830;2023-06-22T03:21:27;20.70;1.00
8248;DHT22;4164;49.844;8.830;2023-06-22T03:23:53;20.60;1.00
8248;DHT22;4164;49.844;8.830;2023-06-22T03:26:19;20.40;1.00
8248;DHT22;4164;49.844;8.830;2023-06-22T03:28:45;20.30;1.00
8248;DHT22;4164;49.844;8.830;2023-06-22T03:31:11;20.20;1.00
8248;DHT22;4164;49.844;8.830;2023-06-22T03:33:36;20.20;1.00
8248;DHT22;4164;49.844;8.830;2023-06-22T03:36:02;20.10;1.00
8248;DHT22;4164;49.844;8.830;2023-06-22T03:38:28;20.10;1.00
8248;DHT22;4164;49.844;8.830;2023-06-22T03:40:53;20.10;1.00
8248;DHT22;4164;49.844;8.830;2023-06-22T03:43:19;20.00;1.00
8248;DHT22;4164;49.844;8.830;2023-06-22T03:45:44;20.10;1.00
8248;DHT22;4164;49.844;8.830;2023-06-22T03:48:13;20.20;1.00
8248;DHT22;4164;49.844;8.830;2023-06-22T03:50:38;20.30;1.00
8248;DHT22;4164;49.844;8.830;2023-06-22T03:53:04;20.30;1.00
8248;DHT22;4164;49.844;8.830;2023-06-22T03:55:29;20.40;1.00
8248;DHT22;4164;49.844;8.830;2023-06-22T03:57:55;20.40;1.00
8248;DHT22;4164;49.844;8.830;2023-06-22T04:00:23;20.60;1.00
8248;DHT22;4164;49.844;8.830;2023-06-22T04:02:48;20.50;1.00
8248;DHT22;4164;49.844;8.830;2023-06-22T04:05:14;20.50;1.00
8248;DHT22;4164;49.844;8.830;2023-06-22T04:07:40;20.50;1.00
8248;DHT22;4164;49.844;8.830;2023-06-22T04:10:06;20.50;1.00
8248;DHT22;4164;49.844;8.830;2023-06-22T04:12:32;20.60;1.00
8248;DHT22;4164;49.844;8.830;2023-06-22T04:14:57;20.50;1.00
8248;DHT22;4164;49.844;8.830;2023-06-22T04:17:23;20.50;1.00
8248;DHT22;4164;49.844;8.830;2023-06-22T04:19:50;20.60;1.00
8248;DHT22;4164;49.844;8.830;2023-06-22T04:22:16;20.60;1.00
8248;DHT22;4164;49.844;8.830;2023-06-22T04:24:42;20.50;1.00
8248;DHT22;4164;49.844;8.830;2023-06-22T04:27:07;20.50;1.00
8248;DHT22;4164;49.844;8.830;2023-06-22T04:29:33;20.40;1.00
8248;DHT22;4164;49.844;8.830;2023-06-22T04:31:59;20.40;1.00
8248;DHT22;4164;49.844;8.830;2023-06-22T04:34:28;20.50;1.00
8248;DHT22;4164;49.844;8.830;2023-06-22T04:36:54;20.60;1.00
8248;DHT22;4164;49.844;8.830;2023-06-22T04:39:20;20.50;1.00
8248;DHT22;4164;49.844;8.830;2023-06-22T04:41:46;20.70;1.00
8248;DHT22;4164;49.844;8.830;2023-06-22T04:44:16;20.60;1.00
8248;DHT22;4164;49.844;8.830;2023-06-22T04:46:51;20.60;1.00
8248;DHT22;4164;49.844;8.830;2023-06-22T04:49:25;20.60;1.00
8248;DHT22;4164;49.844;8.830;2023-06-22T04:51:59;20.60;1.00
8248;DHT22;4164;49.844;8.830;2023-06-22T04:54:25;20.70;1.00
8248;DHT22;4164;49.844;8.830;2023-06-22T04:56:51;20.60;1.00
8248;DHT22;4164;49.844;8.830;2023-06-22T04:59:31;20.70;1.00
8248;DHT22;4164;49.844;8.830;2023-06-22T05:01:59;20.70;1.00
8248;DHT22;4164;49.844;8.830;2023-06-22T05:04:25;20.90;1.00
8248;DHT22;4164;49.844;8.830;2023-06-22T05:06:52;21.00;1.00
8248;DHT22;4164;49.844;8.830;2023-06-22T05:09:18;21.00;1.00
8248;DHT22;4164;49.844;8.830;2023-06-22T05:11:45;21.20;1.00
8248;DHT22;4164;49.844;8.830;2023-06-22T05:14:11;21.20;1.00
8248;DHT22;4164;49.844;8.830;2023-06-22T05:16:37;21.20;1.00
8248;DHT22;4164;49.844;8.830;2023-06-22T05:19:03;21.40;1.00
8248;DHT22;4164;49.844;8.830;2023-06-22T05:21:29;21.50;1.00
8248;DHT22;4164;49.844;8.830;2023-06-22T05:23:56;21.60;1.00
8248;DHT22;4164;49.844;8.830;2023-06-22T05:26:26;21.70;1.00
8248;DHT22;4164;49.844;8.830;2023-06-22T05:28:52;21.80;1.00
8248;DHT22;4164;49.844;8.830;2023-06-22T05:31:19;21.90;1.00
8248;DHT22;4164;49.844;8.830;2023-06-22T05:33:48;21.90;1.00
8248;DHT22;4164;49.844;8.830;2023-06-22T05:36:14;21.90;1.00
8248;DHT22;4164;49.844;8.830;2023-06-22T05:38:41;22.00;1.00
8248;DHT22;4164;49.844;8.830;2023-06-22T05:41:07;22.00;1.00
8248;DHT22;4164;49.844;8.830;2023-06-22T05:43:32;22.20;1.00
8248;DHT22;4164;49.844;8.830;2023-06-22T05:46:00;22.40;1.00
8248;DHT22;4164;49.844;8.830;2023-06-22T05:48:26;22.50;1.00
8248;DHT22;4164;49.844;8.830;2023-06-22T05:50:52;22.60;1.00
8248;DHT22;4164;49.844;8.830;2023-06-22T05:53:17;22.70;1.00
8248;DHT22;4164;49.844;8.830;2023-06-22T05:55:43;22.70;1.00
8248;DHT22;4164;49.844;8.830;2023-06-22T05:58:08;22.80;1.00
8248;DHT22;4164;49.844;8.830;2023-06-22T06:00:34;23.00;1.00
8248;DHT22;4164;49.844;8.830;2023-06-22T06:03:00;23.30;1.00
8248;DHT22;4164;49.844;8.830;2023-06-22T06:05:30;23.30;1.00
8248;DHT22;4164;49.844;8.830;2023-06-22T06:07:55;23.30;1.00
8248;DHT22;4164;49.844;8.830;2023-06-22T06:10:21;23.40;1.00
8248;DHT22;4164;49.844;8.830;2023-06-22T06:12:47;23.50;1.00
8248;DHT22;4164;49.844;8.830;2023-06-22T06:15:12;23.70;99.90
8248;DHT22;4164;49.844;8.830;2023-06-22T06:17:52;23.90;99.90
8248;DHT22;4164;49.844;8.830;2023-06-22T06:20:23;24.00;99.90
8248;DHT22;4164;49.844;8.830;2023-06-22T06:22:49;24.00;99.90
8248;DHT22;4164;49.844;8.830;2023-06-22T06:25:15;24.20;99.90
8248;DHT22;4164;49.844;8.830;2023-06-22T06:27:50;24.30;99.90
8248;DHT22;4164;49.844;8.830;2023-06-22T06:30:17;24.20;99.90
8248;DHT22;4164;49.844;8.830;2023-06-22T06:32:43;24.20;99.90
8248;DHT22;4164;49.844;8.830;2023-06-22T06:35:11;24.40;99.90
8248;DHT22;4164;49.844;8.830;2023-06-22T06:37:39;24.60;99.90
8248;DHT22;4164;49.844;8.830;2023-06-22T06:40:06;24.70;99.90
8248;DHT22;4164;49.844;8.830;2023-06-22T06:42:36;24.80;14.60
8248;DHT22;4164;49.844;8.830;2023-06-22T06:45:04;24.90;1.00
8248;DHT22;4164;49.844;8.830;2023-06-22T06:47:30;25.10;1.00
8248;DHT22;4164;49.844;8.830;2023-06-22T06:49:55;25.10;99.90
8248;DHT22;4164;49.844;8.830;2023-06-22T06:52:21;25.40;99.90
8248;DHT22;4164;49.844;8.830;2023-06-22T06:54:46;25.40;99.90
8248;DHT22;4164;49.844;8.830;2023-06-22T06:57:12;25.50;99.90
8248;DHT22;4164;49.844;8.830;2023-06-22T06:59:38;25.70;99.90
8248;DHT22;4164;49.844;8.830;2023-06-22T07:02:04;25.70;1.00
8248;DHT22;4164;49.844;8.830;2023-06-22T07:04:30;25.90;1.00
8248;DHT22;4164;49.844;8.830;2023-06-22T07:07:00;26.00;99.90
8248;DHT22;4164;49.844;8.830;2023-06-22T07:09:26;26.20;99.90
8248;DHT22;4164;49.844;8.830;2023-06-22T07:11:52;26.30;99.90
8248;DHT22;4164;49.844;8.830;2023-06-22T07:14:17;26.30;99.90
8248;DHT22;4164;49.844;8.830;2023-06-22T07:16:43;26.10;99.90
8248;DHT22;4164;49.844;8.830;2023-06-22T07:19:10;26.20;99.90
8248;DHT22;4164;49.844;8.830;2023-06-22T07:21:36;26.20;99.90
8248;DHT22;4164;49.844;8.830;2023-06-22T07:24:01;26.50;1.00
8248;DHT22;4164;49.844;8.830;2023-06-22T07:26:27;26.50;1.00
8248;DHT22;4164;49.844;8.830;2023-06-22T07:28:53;26.60;99.90
8248;DHT22;4164;49.844;8.830;2023-06-22T07:31:18;26.70;99.90
8248;DHT22;4164;49.844;8.830;2023-06-22T07:33:44;26.70;99.90
8248;DHT22;4164;49.844;8.830;2023-06-22T07:36:09;26.50;54.10
8248;DHT22;4164;49.844;8.830;2023-06-22T07:38:35;26.50;99.90
8248;DHT22;4164;49.844;8.830;2023-06-22T07:41:01;26.50;99.90
8248;DHT22;4164;49.844;8.830;2023-06-22T07:43:26;26.40;99.90
8248;DHT22;4164;49.844;8.830;2023-06-22T07:45:52;26.20;99.90
8248;DHT22;4164;49.844;8.830;2023-06-22T07:48:20;26.20;99.90
8248;DHT22;4164;49.844;8.830;2023-06-22T07:50:46;26.10;99.90
8248;DHT22;4164;49.844;8.830;2023-06-22T07:53:12;26.20;99.90
8248;DHT22;4164;49.844;8.830;2023-06-22T07:55:37;26.20;99.90
8248;DHT22;4164;49.844;8.830;2023-06-22T07:58:03;26.30;99.90
8248;DHT22;4164;49.844;8.830;2023-06-22T08:00:28;26.60;1.00
8248;DHT22;4164;49.844;8.830;2023-06-22T08:02:54;26.80;1.00
8248;DHT22;4164;49.844;8.830;2023-06-22T08:05:19;26.90;99.90
8248;DHT22;4164;49.844;8.830;2023-06-22T08:07:45;27.20;1.00
8248;DHT22;4164;49.844;8.830;2023-06-22T08:10:12;27.40;99.90
8248;DHT22;4164;49.844;8.830;2023-06-22T08:12:40;27.60;99.90
8248;DHT22;4164;49.844;8.830;2023-06-22T08:15:07;27.80;1.00
8248;DHT22;4164;49.844;8.830;2023-06-22T08:17:33;27.90;1.00
8248;DHT22;4164;49.844;8.830;2023-06-22T08:19:58;28.00;99.90
8248;DHT22;4164;49.844;8.830;2023-06-22T08:22:25;27.90;1.00
8248;DHT22;4164;49.844;8.830;2023-06-22T08:24:50;28.00;1.00
8248;DHT22;4164;49.844;8.830;2023-06-22T08:27:16;28.20;1.00
8248;DHT22;4164;49.844;8.830;2023-06-22T08:29:43;28.20;99.90
8248;DHT22;4164;49.844;8.830;2023-06-22T08:32:11;28.20;1.00
8248;DHT22;4164;49.844;8.830;2023-06-22T08:34:37;28.40;99.90
8248;DHT22;4164;49.844;8.830;2023-06-22T08:37:02;28.30;99.90
8248;DHT22;4164;49.844;8.830;2023-06-22T08:39:32;28.20;99.90
8248;DHT22;4164;49.844;8.830;2023-06-22T08:41:57;28.00;99.90
8248;DHT22;4164;49.844;8.830;2023-06-22T08:44:23;28.20;99.90
8248;DHT22;4164;49.844;8.830;2023-06-22T08:46:48;28.20;99.90
8248;DHT22;4164;49.844;8.830;2023-06-22T08:49:14;28.30;99.90
8248;DHT22;4164;49.844;8.830;2023-06-22T08:51:40;28.60;99.90
8248;DHT22;4164;49.844;8.830;2023-06-22T08:54:05;28.80;81.50
8248;DHT22;4164;49.844;8.830;2023-06-22T08:56:31;28.80;99.90
8248;DHT22;4164;49.844;8.830;2023-06-22T08:58:57;29.00;95.20
8248;DHT22;4164;49.844;8.830;2023-06-22T09:01:22;29.10;39.40
8248;DHT22;4164;49.844;8.830;2023-06-22T09:03:48;29.20;1.00
8248;DHT22;4164;49.844;8.830;2023-06-22T09:06:20;29.30;1.00
8248;DHT22;4164;49.844;8.830;2023-06-22T09:08:46;29.30;1.00
8248;DHT22;4164;49.844;8.830;2023-06-22T09:11:12;29.50;1.00
8248;DHT22;4164;49.844;8.830;2023-06-22T09:13:38;29.40;1.00
8248;DHT22;4164;49.844;8.830;2023-06-22T09:16:03;29.50;1.00
8248;DHT22;4164;49.844;8.830;2023-06-22T09:18:29;29.50;1.00
8248;DHT22;4164;49.844;8.830;2023-06-22T09:20:54;29.60;1.00
8248;DHT22;4164;49.844;8.830;2023-06-22T09:23:20;29.40;1.00
8248;DHT22;4164;49.844;8.830;2023-06-22T09:25:46;29.30;1.00
8248;DHT22;4164;49.844;8.830;2023-06-22T09:28:13;29.70;1.00
8248;DHT22;4164;49.844;8.830;2023-06-22T09:30:42;30.00;1.00
8248;DHT22;4164;49.844;8.830;2023-06-22T09:33:08;30.30;1.00
8248;DHT22;4164;49.844;8.830;2023-06-22T09:35:33;30.90;1.00
8248;DHT22;4164;49.844;8.830;2023-06-22T09:37:59;30.80;1.00
8248;DHT22;4164;49.844;8.830;2023-06-22T09:40:25;30.90;1.00
8248;DHT22;4164;49.844;8.830;2023-06-22T09:42:50;31.00;1.00
8248;DHT22;4164;49.844;8.830;2023-06-22T09:45:16;31.10;1.00
8248;DHT22;4164;49.844;8.830;2023-06-22T09:47:41;31.00;1.00
8248;DHT22;4164;49.844;8.830;2023-06-22T09:50:08;31.00;1.00
8248;DHT22;4164;49.844;8.830;2023-06-22T09:52:34;31.10;99.90
8248;DHT22;4164;49.844;8.830;2023-06-22T09:54:59;31.20;1.00
8248;DHT22;4164;49.844;8.830;2023-06-22T09:57:25;31.00;99.90
8248;DHT22;4164;49.844;8.830;2023-06-22T09:59:50;31.10;99.90
8248;DHT22;4164;49.844;8.830;2023-06-22T10:02:16;31.80;99.90
8248;DHT22;4164;49.844;8.830;2023-06-22T10:04:42;32.00;99.90
8248;DHT22;4164;49.844;8.830;2023-06-22T10:07:08;32.10;99.90
8248;DHT22;4164;49.844;8.830;2023-06-22T10:09:33;32.20;99.90
8248;DHT22;4164;49.844;8.830;2023-06-22T10:11:59;32.00;99.90
8248;DHT22;4164;49.844;8.830;2023-06-22T10:14:24;32.20;99.90
8248;DHT22;4164;49.844;8.830;2023-06-22T10:16:52;32.40;99.90
8248;DHT22;4164;49.844;8.830;2023-06-22T10:19:18;31.90;99.90
8248;DHT22;4164;49.844;8.830;2023-06-22T10:21:46;32.10;99.90
8248;DHT22;4164;49.844;8.830;2023-06-22T10:24:12;32.80;99.90
8248;DHT22;4164;49.844;8.830;2023-06-22T10:26:37;32.50;99.90
8248;DHT22;4164;49.844;8.830;2023-06-22T10:29:03;32.30;99.90
8248;DHT22;4164;49.844;8.830;2023-06-22T10:31:29;32.40;99.90
8248;DHT22;4164;49.844;8.830;2023-06-22T10:33:55;32.10;99.90
8248;DHT22;4164;49.844;8.830;2023-06-22T10:36:22;32.20;99.90
8248;DHT22;4164;49.844;8.830;2023-06-22T10:38:48;32.30;99.90
8248;DHT22;4164;49.844;8.830;2023-06-22T10:41:14;32.40;99.90
8248;DHT22;4164;49.844;8.830;2023-06-22T10:43:40;32.50;99.90
8248;DHT22;4164;49.844;8.830;2023-06-22T10:46:06;32.80;99.90
8248;DHT22;4164;49.844;8.830;2023-06-22T10:48:31;33.40;99.90
8248;DHT22;4164;49.844;8.830;2023-06-22T10:50:57;33.50;99.90
8248;DHT22;4164;49.844;8.830;2023-06-22T10:53:23;33.80;99.90
8248;DHT22;4164;49.844;8.830;2023-06-22T10:55:48;33.60;99.90
8248;DHT22;4164;49.844;8.830;2023-06-22T10:58:14;33.40;99.90
8248;DHT22;4164;49.844;8.830;2023-06-22T11:00:39;33.10;99.90
8248;DHT22;4164;49.844;8.830;2023-06-22T11:03:05;33.50;99.90
8248;DHT22;4164;49.844;8.830;2023-06-22T11:05:31;33.90;99.90
8248;DHT22;4164;49.844;8.830;2023-06-22T11:07:56;34.50;99.90
8248;DHT22;4164;49.844;8.830;2023-06-22T11:10:22;34.60;99.90
8248;DHT22;4164;49.844;8.830;2023-06-22T11:12:47;34.00;99.90
8248;DHT22;4164;49.844;8.830;2023-06-22T11:15:13;33.50;99.90
8248;DHT22;4164;49.844;8.830;2023-06-22T11:17:38;33.80;99.90
8248;DHT22;4164;49.844;8.830;2023-06-22T11:20:05;34.40;99.90
8248;DHT22;4164;49.844;8.830;2023-06-22T11:22:38;34.50;99.90
8248;DHT22;4164;49.844;8.830;2023-06-22T11:25:05;34.60;99.90
8248;DHT22;4164;49.844;8.830;2023-06-22T11:27:30;34.80;99.90
8248;DHT22;4164;49.844;8.830;2023-06-22T11:29:56;34.90;99.90
8248;DHT22;4164;49.844;8.830;2023-06-22T11:32:22;35.40;99.90
8248;DHT22;4164;49.844;8.830;2023-06-22T11:34:48;35.70;99.90
8248;DHT22;4164;49.844;8.830;2023-06-22T11:37:14;36.10;99.90
8248;DHT22;4164;49.844;8.830;2023-06-22T11:39:41;36.40;99.90
8248;DHT22;4164;49.844;8.830;2023-06-22T11:42:06;36.20;99.90
8248;DHT22;4164;49.844;8.830;2023-06-22T11:44:32;36.20;99.90
8248;DHT22;4164;49.844;8.830;2023-06-22T11:46:57;36.10;99.90
8248;DHT22;4164;49.844;8.830;2023-06-22T11:49:23;36.00;99.90
8248;DHT22;4164;49.844;8.830;2023-06-22T11:51:49;36.20;99.90
8248;DHT22;4164;49.844;8.830;2023-06-22T11:54:14;37.00;99.90
8248;DHT22;4164;49.844;8.830;2023-06-22T11:56:40;37.30;99.90
8248;DHT22;4164;49.844;8.830;2023-06-22T11:59:05;37.10;99.90
8248;DHT22;4164;49.844;8.830;2023-06-22T12:01:31;37.50;99.90
8248;DHT22;4164;49.844;8.830;2023-06-22T12:03:58;38.70;99.90
8248;DHT22;4164;49.844;8.830;2023-06-22T12:06:24;39.70;99.90
8248;DHT22;4164;49.844;8.830;2023-06-22T12:08:50;40.90;99.90
8248;DHT22;4164;49.844;8.830;2023-06-22T12:11:15;41.50;99.90
8248;DHT22;4164;49.844;8.830;2023-06-22T12:13:41;41.40;99.90
8248;DHT22;4164;49.844;8.830;2023-06-22T12:16:06;40.50;99.90
8248;DHT22;4164;49.844;8.830;2023-06-22T12:18:32;39.00;99.90
8248;DHT22;4164;49.844;8.830;2023-06-22T12:20:58;38.60;99.90
8248;DHT22;4164;49.844;8.830;2023-06-22T12:23:23;38.60;99.90
8248;DHT22;4164;49.844;8.830;2023-06-22T12:25:49;37.50;99.90
8248;DHT22;4164;49.844;8.830;2023-06-22T12:28:14;36.60;99.90
8248;DHT22;4164;49.844;8.830;2023-06-22T12:30:40;36.20;99.90
8248;DHT22;4164;49.844;8.830;2023-06-22T12:33:05;37.40;99.90
8248;DHT22;4164;49.844;8.830;2023-06-22T12:35:31;38.00;99.90
8248;DHT22;4164;49.844;8.830;2023-06-22T12:37:56;38.70;99.90
8248;DHT22;4164;49.844;8.830;2023-06-22T12:40:22;38.90;99.90
8248;DHT22;4164;49.844;8.830;2023-06-22T12:42:48;37.40;99.90
8248;DHT22;4164;49.844;8.830;2023-06-22T12:45:13;37.20;99.90
8248;DHT22;4164;49.844;8.830;2023-06-22T12:47:39;36.70;99.90
8248;DHT22;4164;49.844;8.830;2023-06-22T12:50:05;36.20;99.90
8248;DHT22;4164;49.844;8.830;2023-06-22T12:52:31;36.00;99.90
8248;DHT22;4164;49.844;8.830;2023-06-22T12:54:59;35.50;99.90
8248;DHT22;4164;49.844;8.830;2023-06-22T12:57:25;35.90;99.90
8248;DHT22;4164;49.844;8.830;2023-06-22T12:59:51;36.70;99.90
8248;DHT22;4164;49.844;8.830;2023-06-22T13:02:16;36.80;99.90
8248;DHT22;4164;49.844;8.830;2023-06-22T13:04:42;38.50;99.90
8248;DHT22;4164;49.844;8.830;2023-06-22T13:07:08;40.50;99.90
8248;DHT22;4164;49.844;8.830;2023-06-22T13:09:36;42.90;99.90
8248;DHT22;4164;49.844;8.830;2023-06-22T13:12:01;43.90;94.90
8248;DHT22;4164;49.844;8.830;2023-06-22T13:14:27;43.60;81.80
8248;DHT22;4164;49.844;8.830;2023-06-22T13:16:53;42.20;74.40
8248;DHT22;4164;49.844;8.830;2023-06-22T13:19:18;41.90;71.00
8248;DHT22;4164;49.844;8.830;2023-06-22T13:21:44;42.40;67.60
8248;DHT22;4164;49.844;8.830;2023-06-22T13:24:09;43.30;57.60
8248;DHT22;4164;49.844;8.830;2023-06-22T13:26:35;42.90;51.00
8248;DHT22;4164;49.844;8.830;2023-06-22T13:29:01;42.70;49.40
8248;DHT22;4164;49.844;8.830;2023-06-22T13:31:26;43.40;46.00
8248;DHT22;4164;49.844;8.830;2023-06-22T13:33:52;42.60;44.30
8248;DHT22;4164;49.844;8.830;2023-06-22T13:36:18;42.00;40.00
8248;DHT22;4164;49.844;8.830;2023-06-22T13:38:44;42.70;39.00
8248;DHT22;4164;49.844;8.830;2023-06-22T13:41:10;43.30;29.50
8248;DHT22;4164;49.844;8.830;2023-06-22T13:43:35;42.10;28.20
8248;DHT22;4164;49.844;8.830;2023-06-22T13:46:01;40.50;25.00
8248;DHT22;4164;49.844;8.830;2023-06-22T13:48:26;40.60;25.80
8248;DHT22;4164;49.844;8.830;2023-06-22T13:50:53;41.40;26.20
8248;DHT22;4164;49.844;8.830;2023-06-22T13:53:19;42.30;21.80
8248;DHT22;4164;49.844;8.830;2023-06-22T13:55:44;41.40;19.60
8248;DHT22;4164;49.844;8.830;2023-06-22T13:58:10;41.00;16.80
8248;DHT22;4164;49.844;8.830;2023-06-22T14:00:35;41.00;17.10
8248;DHT22;4164;49.844;8.830;2023-06-22T14:03:01;41.80;16.00
8248;DHT22;4164;49.844;8.830;2023-06-22T14:05:27;41.80;12.00
8248;DHT22;4164;49.844;8.830;2023-06-22T14:07:52;41.90;9.60
8248;DHT22;4164;49.844;8.830;2023-06-22T14:10:18;41.30;5.80
8248;DHT22;4164;49.844;8.830;2023-06-22T14:12:43;40.70;2.30
8248;DHT22;4164;49.844;8.830;2023-06-22T14:15:10;40.90;3.10
8248;DHT22;4164;49.844;8.830;2023-06-22T14:17:35;40.70;2.70
8248;DHT22;4164;49.844;8.830;2023-06-22T14:20:01;41.10;1.00
8248;DHT22;4164;49.844;8.830;2023-06-22T14:22:27;41.70;1.00
8248;DHT22;4164;49.844;8.830;2023-06-22T14:24:54;40.60;1.00
8248;DHT22;4164;49.844;8.830;2023-06-22T14:27:21;40.60;1.00
8248;DHT22;4164;49.844;8.830;2023-06-22T14:29:46;41.10;1.00
8248;DHT22;4164;49.844;8.830;2023-06-22T14:32:12;41.40;1.00
8248;DHT22;4164;49.844;8.830;2023-06-22T14:34:37;41.20;1.00
8248;DHT22;4164;49.844;8.830;2023-06-22T14:37:06;41.10;1.00
8248;DHT22;4164;49.844;8.830;2023-06-22T14:39:32;41.30;1.00
8248;DHT22;4164;49.844;8.830;2023-06-22T14:41:58;42.50;1.00
8248;DHT22;4164;49.844;8.830;2023-06-22T14:44:23;42.50;1.00
8248;DHT22;4164;49.844;8.830;2023-06-22T14:46:49;43.70;1.00
8248;DHT22;4164;49.844;8.830;2023-06-22T14:49:14;44.30;1.00
8248;DHT22;4164;49.844;8.830;2023-06-22T14:51:40;44.00;1.00
8248;DHT22;4164;49.844;8.830;2023-06-22T14:54:05;41.60;1.00
8248;DHT22;4164;49.844;8.830;2023-06-22T14:56:31;39.00;1.00
8248;DHT22;4164;49.844;8.830;2023-06-22T14:58:56;37.50;1.00
8248;DHT22;4164;49.844;8.830;2023-06-22T15:01:22;36.50;1.00
8248;DHT22;4164;49.844;8.830;2023-06-22T15:03:48;36.10;1.00
8248;DHT22;4164;49.844;8.830;2023-06-22T15:06:13;36.00;1.00
8248;DHT22;4164;49.844;8.830;2023-06-22T15:08:40;35.80;1.00
8248;DHT22;4164;49.844;8.830;2023-06-22T15:11:06;36.40;1.00
8248;DHT22;4164;49.844;8.830;2023-06-22T15:13:33;36.40;1.00
8248;DHT22;4164;49.844;8.830;2023-06-22T15:16:02;36.30;1.00
8248;DHT22;4164;49.844;8.830;2023-06-22T15:18:31;36.10;1.00
8248;DHT22;4164;49.844;8.830;2023-06-22T15:20:59;36.00;1.00
8248;DHT22;4164;49.844;8.830;2023-06-22T15:23:27;35.30;1.00
8248;DHT22;4164;49.844;8.830;2023-06-22T15:25:54;35.00;1.00
8248;DHT22;4164;49.844;8.830;2023-06-22T15:28:20;34.90;1.30
8248;DHT22;4164;49.844;8.830;2023-06-22T15:30:47;34.70;2.10
8248;DHT22;4164;49.844;8.830;2023-06-22T15:33:13;35.00;4.20
8248;DHT22;4164;49.844;8.830;2023-06-22T15:35:39;34.80;4.80
8248;DHT22;4164;49.844;8.830;2023-06-22T15:38:04;34.50;4.90
8248;DHT22;4164;49.844;8.830;2023-06-22T15:40:30;34.40;4.90
8248;DHT22;4164;49.844;8.830;2023-06-22T15:42:55;34.70;8.70
8248;DHT22;4164;49.844;8.830;2023-06-22T15:45:21;34.60;7.70
8248;DHT22;4164;49.844;8.830;2023-06-22T15:47:47;34.40;9.80
8248;DHT22;4164;49.844;8.830;2023-06-22T15:50:12;34.50;12.10
8248;DHT22;4164;49.844;8.830;2023-06-22T15:52:39;34.50;12.30
8248;DHT22;4164;49.844;8.830;2023-06-22T15:55:05;34.20;13.60
8248;DHT22;4164;49.844;8.830;2023-06-22T15:57:32;34.00;14.60
8248;DHT22;4164;49.844;8.830;2023-06-22T16:00:00;33.40;14.20
8248;DHT22;4164;49.844;8.830;2023-06-22T16:02:25;33.10;15.70
8248;DHT22;4164;49.844;8.830;2023-06-22T16:04:52;32.80;17.00
8248;DHT22;4164;49.844;8.830;2023-06-22T16:07:19;32.70;18.30
8248;DHT22;4164;49.844;8.830;2023-06-22T16:09:45;32.50;21.00